sensor_id;sensor_type;location;lat;lon;timestamp;P1;durP1;ratioP1;P2;durP2;ratioP2
33459;SDS011;19795;53.160;6.612;2023-09-19T00:01:46;1999.90;;;999.90;;
33459;SDS011;19795;53.160;6.612;2023-09-19T00:04:12;1999.90;;;999.90;;
33459;SDS011;19795;53.160;6.612;2023-09-19T00:06:39;1999.90;;;999.90;;
33459;SDS011;19795;53.160;6.612;2023-09-19T00:09:05;1999.90;;;999.90;;
33459;SDS011;19795;53.160;6.612;2023-09-19T00:11:35;1999.90;;;999.90;;
33459;SDS011;19795;53.160;6.612;2023-09-19T00:14:01;1999.90;;;999.90;;
33459;SDS011;19795;53.160;6.612;2023-09-19T00:16:27;1999.90;;;999.90;;
33459;SDS011;19795;53.160;6.612;2023-09-19T00:18:53;1999.90;;;999.90;;
33459;SDS011;19795;53.160;6.612;2023-09-19T00:21:18;1999.90;;;999.90;;
33459;SDS011;19795;53.160;6.612;2023-09-19T00:23:44;1999.90;;;999.90;;
33459;SDS011;19795;53.160;6.612;2023-09-19T00:26:10;1999.90;;;999.90;;
33459;SDS011;19795;53.160;6.612;2023-09-19T00:28:36;1999.90;;;999.90;;
33459;SDS011;19795;53.160;6.612;2023-09-19T00:31:02;1999.90;;;999.90;;
33459;SDS011;19795;53.160;6.612;2023-09-19T00:33:28;1999.90;;;999.90;;
33459;SDS011;19795;53.160;6.612;2023-09-19T00:35:55;1999.90;;;999.90;;
33459;SDS011;19795;53.160;6.612;2023-09-19T00:38:22;1999.90;;;999.90;;
33459;SDS011;19795;53.160;6.612;2023-09-19T00:40:51;1999.90;;;999.90;;
33459;SDS011;19795;53.160;6.612;2023-09-19T00:43:19;1999.90;;;999.90;;
33459;SDS011;19795;53.160;6.612;2023-09-19T00:45:46;1999.90;;;999.90;;
33459;SDS011;19795;53.160;6.612;2023-09-19T00:48:13;1999.90;;;999.90;;
33459;SDS011;19795;53.160;6.612;2023-09-19T00:50:41;1999.90;;;999.90;;
33459;SDS011;19795;53.160;6.612;2023-09-19T00:53:08;1999.90;;;999.90;;
33459;SDS011;19795;53.160;6.612;2023-09-19T00:55:35;1999.90;;;999.90;;
33459;SDS011;19795;53.160;6.612;2023-09-19T00:58:11;1999.90;;;999.90;;
33459;SDS011;19795;53.160;6.612;2023-09-19T01:00:37;1999.90;;;999.90;;
33459;SDS011;19795;53.160;6.612;2023-09-19T01:03:03;1999.90;;;999.90;;
33459;SDS011;19795;53.160;6.612;2023-09-19T01:05:31;1999.90;;;999.90;;
33459;SDS011;19795;53.160;6.612;2023-09-19T01:07:58;1999.90;;;999.90;;
33459;SDS011;19795;53.160;6.612;2023-09-19T01:10:24;1999.90;;;999.90;;
33459;SDS011;19795;53.160;6.612;2023-09-19T01:20:50;1999.90;;;999.90;;
33459;SDS011;19795;53.160;6.612;2023-09-19T01:29:12;1999.90;;;999.90;;
33459;SDS011;19795;53.160;6.612;2023-09-19T01:31:56;1999.90;;;999.90;;
33459;SDS011;19795;53.160;6.612;2023-09-19T01:34:39;1999.90;;;999.90;;
33459;SDS011;19795;53.160;6.612;2023-09-19T01:37:19;1999.90;;;999.90;;
33459;SDS011;19795;53.160;6.612;2023-09-19T01:39:59;1999.90;;;999.90;;
33459;SDS011;19795;53.160;6.612;2023-09-19T01:47:38;1999.90;;;999.90;;
33459;SDS011;19795;53.160;6.612;2023-09-19T01:50:34;1999.90;;;999.90;;
33459;SDS011;19795;53.160;6.612;2023-09-19T01:53:14;1999.90;;;999.90;;
33459;SDS011;19795;53.160;6.612;2023-09-19T01:55:47;1999.90;;;999.90;;
33459;SDS011;19795;53.160;6.612;2023-09-19T01:58:20;1999.90;;;999.90;;
33459;SDS011;19795;53.160;6.612;2023-09-19T02:00:48;1999.90;;;999.90;;
33459;SDS011;19795;53.160;6.612;2023-09-19T02:03:17;1999.90;;;999.90;;
33459;SDS011;19795;53.160;6.612;2023-09-19T02:05:50;1999.90;;;999.90;;
33459;SDS011;19795;53.160;6.612;2023-09-19T02:08:19;1999.90;;;999.90;;
33459;SDS011;19795;53.160;6.612;2023-09-19T02:10:46;1999.90;;;999.90;;
33459;SDS011;19795;53.160;6.612;2023-09-19T02:13:21;1999.90;;;999.90;;
33459;SDS011;19795;53.160;6.612;2023-09-19T02:15:50;1999.90;;;999.90;;
33459;SDS011;19795;53.160;6.612;2023-09-19T02:18:16;1999.90;;;999.90;;
33459;SDS011;19795;53.160;6.612;2023-09-19T02:20:42;1999.90;;;999.90;;
33459;SDS011;19795;53.160;6.612;2023-09-19T02:23:07;1999.90;;;999.90;;
33459;SDS011;19795;53.160;6.612;2023-09-19T02:25:34;1999.90;;;999.90;;
33459;SDS011;19795;53.160;6.612;2023-09-19T02:28:00;1999.90;;;999.90;;
33459;SDS011;19795;53.160;6.612;2023-09-19T02:30:29;1999.90;;;999.90;;
33459;SDS011;19795;53.160;6.612;2023-09-19T02:32:55;1999.90;;;999.90;;
33459;SDS011;19795;53.160;6.612;2023-09-19T02:35:20;1999.90;;;999.90;;
33459;SDS011;19795;53.160;6.612;2023-09-19T02:37:50;1999.90;;;999.90;;
33459;SDS011;19795;53.160;6.612;2023-09-19T02:40:15;1999.90;;;999.90;;
33459;SDS011;19795;53.160;6.612;2023-09-19T02:42:46;1999.90;;;999.90;;
33459;SDS011;19795;53.160;6.612;2023-09-19T02:45:15;1999.90;;;999.90;;
33459;SDS011;19795;53.160;6.612;2023-09-19T02:47:43;1999.90;;;999.90;;
33459;SDS011;19795;53.160;6.612;2023-09-19T02:50:09;1999.90;;;999.90;;
33459;SDS011;19795;53.160;6.612;2023-09-19T02:52:44;1999.90;;;999.90;;
33459;SDS011;19795;53.160;6.612;2023-09-19T02:55:13;1999.90;;;999.90;;
33459;SDS011;19795;53.160;6.612;2023-09-19T02:57:52;1999.90;;;999.90;;
33459;SDS011;19795;53.160;6.612;2023-09-19T03:00:21;1999.90;;;999.90;;
33459;SDS011;19795;53.160;6.612;2023-09-19T05:16:20;1999.90;;;999.90;;
33459;SDS011;19795;53.160;6.612;2023-09-19T05:24:49;1999.90;;;999.90;;
33459;SDS011;19795;53.160;6.612;2023-09-19T05:27:14;1999.90;;;999.90;;
33459;SDS011;19795;53.160;6.612;2023-09-19T05:29:42;1999.90;;;999.90;;
33459;SDS011;19795;53.160;6.612;2023-09-19T05:32:09;1999.90;;;999.90;;
33459;SDS011;19795;53.160;6.612;2023-09-19T05:34:35;1999.90;;;999.90;;
33459;SDS011;19795;53.160;6.612;2023-09-19T05:37:04;1999.90;;;999.90;;
33459;SDS011;19795;53.160;6.612;2023-09-19T05:39:32;1999.90;;;999.90;;
33459;SDS011;19795;53.160;6.612;2023-09-19T05:41:58;1999.90;;;999.90;;
33459;SDS011;19795;53.160;6.612;2023-09-19T05:44:27;1999.90;;;999.90;;
33459;SDS011;19795;53.160;6.612;2023-09-19T05:46:53;1999.90;;;999.90;;
33459;SDS011;19795;53.160;6.612;2023-09-19T05:49:21;1999.90;;;999.90;;
33459;SDS011;19795;53.160;6.612;2023-09-19T05:51:47;1999.90;;;999.90;;
33459;SDS011;19795;53.160;6.612;2023-09-19T05:54:15;1999.90;;;999.90;;
33459;SDS011;19795;53.160;6.612;2023-09-19T05:56:44;1999.90;;;999.90;;
33459;SDS011;19795;53.160;6.612;2023-09-19T05:59:25;1999.90;;;999.90;;
33459;SDS011;19795;53.160;6.612;2023-09-19T06:01:51;1999.90;;;999.90;;
33459;SDS011;19795;53.160;6.612;2023-09-19T06:04:19;1999.90;;;999.90;;
33459;SDS011;19795;53.160;6.612;2023-09-19T06:06:52;1999.90;;;999.90;;
33459;SDS011;19795;53.160;6.612;2023-09-19T06:09:18;1999.90;;;999.90;;
33459;SDS011;19795;53.160;6.612;2023-09-19T06:11:55;1999.90;;;999.90;;
33459;SDS011;19795;53.160;6.612;2023-09-19T06:14:22;1999.90;;;999.90;;
33459;SDS011;19795;53.160;6.612;2023-09-19T06:16:49;1999.90;;;999.90;;
33459;SDS011;19795;53.160;6.612;2023-09-19T06:19:18;1999.90;;;999.90;;
33459;SDS011;19795;53.160;6.612;2023-09-19T06:21:46;1999.90;;;999.90;;
33459;SDS011;19795;53.160;6.612;2023-09-19T06:24:12;1999.90;;;999.90;;
33459;SDS011;19795;53.160;6.612;2023-09-19T06:26:41;1999.90;;;999.90;;
33459;SDS011;19795;53.160;6.612;2023-09-19T06:29:07;1999.90;;;999.90;;
33459;SDS011;19795;53.160;6.612;2023-09-19T06:31:32;1999.90;;;999.90;;
33459;SDS011;19795;53.160;6.612;2023-09-19T06:33:58;1999.90;;;999.90;;
33459;SDS011;19795;53.160;6.612;2023-09-19T06:36:24;1999.90;;;999.90;;
33459;SDS011;19795;53.160;6.612;2023-09-19T06:38:50;1999.90;;;999.90;;
33459;SDS011;19795;53.160;6.612;2023-09-19T06:41:18;1999.90;;;999.90;;
33459;SDS011;19795;53.160;6.612;2023-09-19T06:44:07;1999.90;;;999.90;;
33459;SDS011;19795;53.160;6.612;2023-09-19T06:49:40;1999.90;;;999.90;;
33459;SDS011;19795;53.160;6.612;2023-09-19T06:52:51;1999.90;;;999.90;;
33459;SDS011;19795;53.160;6.612;2023-09-19T06:55:26;1999.90;;;999.90;;
33459;SDS011;19795;53.160;6.612;2023-09-19T06:58:01;1999.90;;;999.90;;
33459;SDS011;19795;53.160;6.612;2023-09-19T07:00:30;1999.90;;;999.90;;
33459;SDS011;19795;53.160;6.612;2023-09-19T07:03:35;1999.90;;;999.90;;
33459;SDS011;19795;53.160;6.612;2023-09-19T07:09:24;1999.90;;;999.90;;
33459;SDS011;19795;53.160;6.612;2023-09-19T07:11:59;1999.90;;;999.90;;
33459;SDS011;19795;53.160;6.612;2023-09-19T07:14:25;1999.90;;;999.90;;
33459;SDS011;19795;53.160;6.612;2023-09-19T07:16:52;1999.90;;;999.90;;
33459;SDS011;19795;53.160;6.612;2023-09-19T07:19:17;1999.90;;;999.90;;
33459;SDS011;19795;53.160;6.612;2023-09-19T07:21:49;1999.90;;;999.90;;
33459;SDS011;19795;53.160;6.612;2023-09-19T07:24:38;1999.90;;;999.90;;
33459;SDS011;19795;53.160;6.612;2023-09-19T07:27:06;1999.90;;;999.90;;
33459;SDS011;19795;53.160;6.612;2023-09-19T07:29:32;1999.90;;;999.90;;
33459;SDS011;19795;53.160;6.612;2023-09-19T07:31:57;1999.90;;;999.90;;
33459;SDS011;19795;53.160;6.612;2023-09-19T07:34:23;1999.90;;;999.90;;
33459;SDS011;19795;53.160;6.612;2023-09-19T07:36:49;1999.90;;;999.90;;
33459;SDS011;19795;53.160;6.612;2023-09-19T07:39:15;1999.90;;;999.90;;
33459;SDS011;19795;53.160;6.612;2023-09-19T07:41:41;1999.90;;;999.90;;
33459;SDS011;19795;53.160;6.612;2023-09-19T07:44:07;1999.90;;;999.90;;
33459;SDS011;19795;53.160;6.612;2023-09-19T07:46:34;1999.90;;;999.90;;
33459;SDS011;19795;53.160;6.612;2023-09-19T07:49:00;1999.90;;;999.90;;
33459;SDS011;19795;53.160;6.612;2023-09-19T07:51:26;1999.90;;;999.90;;
33459;SDS011;19795;53.160;6.612;2023-09-19T07:53:52;1999.90;;;999.90;;
33459;SDS011;19795;53.160;6.612;2023-09-19T07:56:18;1999.90;;;999.90;;
33459;SDS011;19795;53.160;6.612;2023-09-19T07:58:45;1999.90;;;999.90;;
33459;SDS011;19795;53.160;6.612;2023-09-19T08:01:11;1999.90;;;999.90;;
33459;SDS011;19795;53.160;6.612;2023-09-19T08:03:39;1999.90;;;999.90;;
33459;SDS011;19795;53.160;6.612;2023-09-19T08:06:08;1999.90;;;999.90;;
33459;SDS011;19795;53.160;6.612;2023-09-19T08:08:35;1999.90;;;999.90;;
33459;SDS011;19795;53.160;6.612;2023-09-19T08:11:04;1999.90;;;999.90;;
33459;SDS011;19795;53.160;6.612;2023-09-19T08:13:39;1999.90;;;999.90;;
33459;SDS011;19795;53.160;6.612;2023-09-19T08:16:13;1999.90;;;999.90;;
33459;SDS011;19795;53.160;6.612;2023-09-19T08:18:40;1999.90;;;999.90;;
33459;SDS011;19795;53.160;6.612;2023-09-19T08:21:06;1999.90;;;999.90;;
33459;SDS011;19795;53.160;6.612;2023-09-19T08:23:39;1999.90;;;999.90;;
33459;SDS011;19795;53.160;6.612;2023-09-19T08:26:06;1999.90;;;999.90;;
33459;SDS011;19795;53.160;6.612;2023-09-19T08:28:33;1999.90;;;999.90;;
33459;SDS011;19795;53.160;6.612;2023-09-19T08:31:05;1999.90;;;999.90;;
33459;SDS011;19795;53.160;6.612;2023-09-19T08:33:33;1999.90;;;999.90;;
33459;SDS011;19795;53.160;6.612;2023-09-19T08:36:02;1999.90;;;999.90;;
33459;SDS011;19795;53.160;6.612;2023-09-19T08:38:30;1999.90;;;999.90;;
33459;SDS011;19795;53.160;6.612;2023-09-19T08:40:58;1999.90;;;999.90;;
33459;SDS011;19795;53.160;6.612;2023-09-19T08:43:27;1999.90;;;999.90;;
33459;SDS011;19795;53.160;6.612;2023-09-19T08:46:02;1999.90;;;999.90;;
33459;SDS011;19795;53.160;6.612;2023-09-19T08:48:39;1999.90;;;999.90;;
33459;SDS011;19795;53.160;6.612;2023-09-19T08:51:15;1999.90;;;999.90;;
33459;SDS011;19795;53.160;6.612;2023-09-19T08:54:01;1999.90;;;999.90;;
33459;SDS011;19795;53.160;6.612;2023-09-19T08:56:31;1999.90;;;999.90;;
33459;SDS011;19795;53.160;6.612;2023-09-19T09:01:32;1999.90;;;999.90;;
33459;SDS011;19795;53.160;6.612;2023-09-19T09:03:58;1999.90;;;999.90;;
33459;SDS011;19795;53.160;6.612;2023-09-19T09:06:32;1999.90;;;999.90;;
33459;SDS011;19795;53.160;6.612;2023-09-19T09:08:59;1999.90;;;999.90;;
33459;SDS011;19795;53.160;6.612;2023-09-19T09:11:25;1999.90;;;999.90;;
33459;SDS011;19795;53.160;6.612;2023-09-19T09:13:53;1999.90;;;999.90;;
33459;SDS011;19795;53.160;6.612;2023-09-19T09:16:21;1999.90;;;999.90;;
33459;SDS011;19795;53.160;6.612;2023-09-19T09:18:51;1999.90;;;999.90;;
33459;SDS011;19795;53.160;6.612;2023-09-19T09:21:20;1999.90;;;999.90;;
33459;SDS011;19795;53.160;6.612;2023-09-19T09:23:49;1999.90;;;999.90;;
33459;SDS011;19795;53.160;6.612;2023-09-19T09:26:16;1999.90;;;999.90;;
33459;SDS011;19795;53.160;6.612;2023-09-19T09:31:26;1999.90;;;999.90;;
33459;SDS011;19795;53.160;6.612;2023-09-19T09:33:55;1999.90;;;999.90;;
33459;SDS011;19795;53.160;6.612;2023-09-19T09:39:01;511.73;;;381.77;;
33459;SDS011;19795;53.160;6.612;2023-09-19T09:41:41;1034.75;;;709.00;;
33459;SDS011;19795;53.160;6.612;2023-09-19T09:44:14;736.83;;;585.72;;
33459;SDS011;19795;53.160;6.612;2023-09-19T09:46:47;827.33;;;657.10;;
33459;SDS011;19795;53.160;6.612;2023-09-19T09:49:25;567.53;;;458.63;;
33459;SDS011;19795;53.160;6.612;2023-09-19T09:52:05;665.33;;;549.40;;
33459;SDS011;19795;53.160;6.612;2023-09-19T09:54:57;708.03;;;527.33;;
33459;SDS011;19795;53.160;6.612;2023-09-19T09:57:35;1244.45;;;679.15;;
33459;SDS011;19795;53.160;6.612;2023-09-19T10:00:12;704.17;;;582.95;;
33459;SDS011;19795;53.160;6.612;2023-09-19T10:02:38;669.08;;;543.38;;
33459;SDS011;19795;53.160;6.612;2023-09-19T10:05:18;461.05;;;391.20;;
33459;SDS011;19795;53.160;6.612;2023-09-19T10:07:48;996.95;;;694.17;;
33459;SDS011;19795;53.160;6.612;2023-09-19T10:10:32;531.58;;;421.67;;
33459;SDS011;19795;53.160;6.612;2023-09-19T10:13:09;925.42;;;825.60;;
33459;SDS011;19795;53.160;6.612;2023-09-19T10:15:50;1027.90;;;882.13;;
33459;SDS011;19795;53.160;6.612;2023-09-19T10:20:49;893.60;;;795.50;;
33459;SDS011;19795;53.160;6.612;2023-09-19T10:23:16;883.85;;;790.03;;
33459;SDS011;19795;53.160;6.612;2023-09-19T10:25:51;745.53;;;659.40;;
33459;SDS011;19795;53.160;6.612;2023-09-19T10:28:18;1381.80;;;842.30;;
33459;SDS011;19795;53.160;6.612;2023-09-19T10:30:51;602.58;;;528.55;;
33459;SDS011;19795;53.160;6.612;2023-09-19T10:33:18;783.72;;;652.65;;
33459;SDS011;19795;53.160;6.612;2023-09-19T10:35:48;542.17;;;399.45;;
33459;SDS011;19795;53.160;6.612;2023-09-19T10:38:20;863.30;;;755.53;;
33459;SDS011;19795;53.160;6.612;2023-09-19T10:40:50;1277.65;;;702.30;;
33459;SDS011;19795;53.160;6.612;2023-09-19T10:43:18;598.80;;;525.13;;
33459;SDS011;19795;53.160;6.612;2023-09-19T10:45:47;939.22;;;840.80;;
33459;SDS011;19795;53.160;6.612;2023-09-19T10:48:14;956.83;;;861.83;;
33459;SDS011;19795;53.160;6.612;2023-09-19T10:53:32;725.00;;;643.35;;
33459;SDS011;19795;53.160;6.612;2023-09-19T10:56:15;913.97;;;815.58;;
33459;SDS011;19795;53.160;6.612;2023-09-19T10:58:53;703.20;;;613.00;;
33459;SDS011;19795;53.160;6.612;2023-09-19T11:02:15;1003.97;;;901.15;;
33459;SDS011;19795;53.160;6.612;2023-09-19T11:04:42;534.83;;;433.92;;
33459;SDS011;19795;53.160;6.612;2023-09-19T11:09:53;512.22;;;404.25;;
33459;SDS011;19795;53.160;6.612;2023-09-19T11:14:54;335.27;;;241.07;;
33459;SDS011;19795;53.160;6.612;2023-09-19T11:36:09;1109.80;;;552.55;;
33459;SDS011;19795;53.160;6.612;2023-09-19T11:43:53;1566.38;;;786.60;;
33459;SDS011;19795;53.160;6.612;2023-09-19T11:46:24;1999.90;;;999.90;;
33459;SDS011;19795;53.160;6.612;2023-09-19T11:48:50;1564.75;;;801.70;;
33459;SDS011;19795;53.160;6.612;2023-09-19T11:51:29;1999.90;;;999.90;;
33459;SDS011;19795;53.160;6.612;2023-09-19T11:54:10;591.78;;;389.95;;
33459;SDS011;19795;53.160;6.612;2023-09-19T11:56:50;621.38;;;392.90;;
33459;SDS011;19795;53.160;6.612;2023-09-19T11:59:20;349.33;;;247.68;;
33459;SDS011;19795;53.160;6.612;2023-09-19T12:01:52;375.40;;;191.95;;
33459;SDS011;19795;53.160;6.612;2023-09-19T12:04:22;1999.90;;;999.90;;
33459;SDS011;19795;53.160;6.612;2023-09-19T12:07:12;821.78;;;394.38;;
33459;SDS011;19795;53.160;6.612;2023-09-19T12:10:02;1999.90;;;999.90;;
33459;SDS011;19795;53.160;6.612;2023-09-19T12:12:29;1999.90;;;999.90;;
33459;SDS011;19795;53.160;6.612;2023-09-19T12:14:56;1999.90;;;999.90;;
33459;SDS011;19795;53.160;6.612;2023-09-19T12:17:23;1999.90;;;999.90;;
33459;SDS011;19795;53.160;6.612;2023-09-19T12:20:01;1999.90;;;999.90;;
33459;SDS011;19795;53.160;6.612;2023-09-19T12:22:44;1999.90;;;999.90;;
33459;SDS011;19795;53.160;6.612;2023-09-19T12:25:11;1999.90;;;999.90;;
33459;SDS011;19795;53.160;6.612;2023-09-19T12:27:45;1999.90;;;999.90;;
33459;SDS011;19795;53.160;6.612;2023-09-19T12:30:12;1999.90;;;999.90;;
33459;SDS011;19795;53.160;6.612;2023-09-19T12:32:48;1999.90;;;999.90;;
33459;SDS011;19795;53.160;6.612;2023-09-19T12:35:30;1999.90;;;999.90;;
33459;SDS011;19795;53.160;6.612;2023-09-19T12:37:59;1999.90;;;999.90;;
33459;SDS011;19795;53.160;6.612;2023-09-19T12:40:26;1999.90;;;999.90;;
33459;SDS011;19795;53.160;6.612;2023-09-19T12:42:54;1999.90;;;999.90;;
33459;SDS011;19795;53.160;6.612;2023-09-19T12:45:21;1999.90;;;999.90;;
33459;SDS011;19795;53.160;6.612;2023-09-19T12:51:04;1506.13;;;753.97;;
33459;SDS011;19795;53.160;6.612;2023-09-19T12:53:35;1999.90;;;999.90;;
33459;SDS011;19795;53.160;6.612;2023-09-19T12:56:05;1999.90;;;999.90;;
33459;SDS011;19795;53.160;6.612;2023-09-19T12:58:33;1999.90;;;999.90;;
33459;SDS011;19795;53.160;6.612;2023-09-19T13:01:00;1999.90;;;999.90;;
33459;SDS011;19795;53.160;6.612;2023-09-19T13:03:28;1999.90;;;999.90;;
33459;SDS011;19795;53.160;6.612;2023-09-19T13:13:46;1999.90;;;999.90;;
33459;SDS011;19795;53.160;6.612;2023-09-19T13:16:33;1999.90;;;999.90;;
33459;SDS011;19795;53.160;6.612;2023-09-19T13:18:59;1999.90;;;999.90;;
33459;SDS011;19795;53.160;6.612;2023-09-19T13:21:34;1999.90;;;999.90;;
33459;SDS011;19795;53.160;6.612;2023-09-19T13:24:24;1999.90;;;999.90;;
33459;SDS011;19795;53.160;6.612;2023-09-19T13:26:55;1999.90;;;999.90;;
33459;SDS011;19795;53.160;6.612;2023-09-19T13:29:21;1999.90;;;999.90;;
33459;SDS011;19795;53.160;6.612;2023-09-19T13:31:47;1999.90;;;999.90;;
33459;SDS011;19795;53.160;6.612;2023-09-19T13:34:20;1999.90;;;999.90;;
33459;SDS011;19795;53.160;6.612;2023-09-19T13:36:46;1999.90;;;999.90;;
33459;SDS011;19795;53.160;6.612;2023-09-19T13:39:18;1999.90;;;999.90;;
33459;SDS011;19795;53.160;6.612;2023-09-19T13:41:44;1999.90;;;999.90;;
33459;SDS011;19795;53.160;6.612;2023-09-19T13:44:12;1999.90;;;999.90;;
33459;SDS011;19795;53.160;6.612;2023-09-19T13:46:38;1999.90;;;999.90;;
33459;SDS011;19795;53.160;6.612;2023-09-19T13:49:05;1999.90;;;999.90;;
33459;SDS011;19795;53.160;6.612;2023-09-19T13:57:45;1999.90;;;999.90;;
33459;SDS011;19795;53.160;6.612;2023-09-19T14:00:11;1999.90;;;999.90;;
33459;SDS011;19795;53.160;6.612;2023-09-19T14:02:41;1999.90;;;999.90;;
33459;SDS011;19795;53.160;6.612;2023-09-19T14:05:09;1999.90;;;999.90;;
33459;SDS011;19795;53.160;6.612;2023-09-19T14:07:37;1999.90;;;999.90;;
33459;SDS011;19795;53.160;6.612;2023-09-19T14:10:03;1999.90;;;999.90;;
33459;SDS011;19795;53.160;6.612;2023-09-19T14:12:33;1999.90;;;999.90;;
33459;SDS011;19795;53.160;6.612;2023-09-19T14:14:59;1999.90;;;999.90;;
33459;SDS011;19795;53.160;6.612;2023-09-19T14:17:25;1999.90;;;999.90;;
33459;SDS011;19795;53.160;6.612;2023-09-19T14:19:51;1999.90;;;999.90;;
33459;SDS011;19795;53.160;6.612;2023-09-19T14:22:17;1999.90;;;999.90;;
33459;SDS011;19795;53.160;6.612;2023-09-19T14:24:43;1999.90;;;999.90;;
33459;SDS011;19795;53.160;6.612;2023-09-19T14:27:12;1999.90;;;999.90;;
33459;SDS011;19795;53.160;6.612;2023-09-19T14:29:38;1999.90;;;999.90;;
33459;SDS011;19795;53.160;6.612;2023-09-19T14:32:04;1999.90;;;999.90;;
33459;SDS011;19795;53.160;6.612;2023-09-19T14:34:30;1999.90;;;999.90;;
33459;SDS011;19795;53.160;6.612;2023-09-19T14:36:56;1999.90;;;999.90;;
33459;SDS011;19795;53.160;6.612;2023-09-19T14:39:22;1999.90;;;999.90;;
33459;SDS011;19795;53.160;6.612;2023-09-19T14:41:48;1999.90;;;999.90;;
33459;SDS011;19795;53.160;6.612;2023-09-19T14:44:14;1999.90;;;999.90;;
33459;SDS011;19795;53.160;6.612;2023-09-19T14:46:43;1999.90;;;999.90;;
33459;SDS011;19795;53.160;6.612;2023-09-19T14:49:10;1999.90;;;999.90;;
33459;SDS011;19795;53.160;6.612;2023-09-19T14:51:36;1999.90;;;999.90;;
33459;SDS011;19795;53.160;6.612;2023-09-19T14:54:04;1999.90;;;999.90;;
33459;SDS011;19795;53.160;6.612;2023-09-19T14:56:32;1999.90;;;999.90;;
33459;SDS011;19795;53.160;6.612;2023-09-19T14:58:58;1999.90;;;999.90;;
33459;SDS011;19795;53.160;6.612;2023-09-19T15:01:24;1999.90;;;999.90;;
33459;SDS011;19795;53.160;6.612;2023-09-19T15:03:49;1999.90;;;999.90;;
33459;SDS011;19795;53.160;6.612;2023-09-19T15:06:15;1999.90;;;999.90;;
33459;SDS011;19795;53.160;6.612;2023-09-19T15:08:45;1999.90;;;999.90;;
33459;SDS011;19795;53.160;6.612;2023-09-19T15:11:18;1999.90;;;999.90;;
33459;SDS011;19795;53.160;6.612;2023-09-19T15:13:47;1999.90;;;999.90;;
33459;SDS011;19795;53.160;6.612;2023-09-19T15:16:15;1999.90;;;999.90;;
33459;SDS011;19795;53.160;6.612;2023-09-19T15:18:42;1999.90;;;999.90;;
33459;SDS011;19795;53.160;6.612;2023-09-19T15:21:10;1999.90;;;999.90;;
33459;SDS011;19795;53.160;6.612;2023-09-19T15:23:40;1999.90;;;999.90;;
33459;SDS011;19795;53.160;6.612;2023-09-19T15:26:06;1999.90;;;999.90;;
33459;SDS011;19795;53.160;6.612;2023-09-19T15:28:37;1999.90;;;999.90;;
33459;SDS011;19795;53.160;6.612;2023-09-19T15:31:12;1999.90;;;999.90;;
33459;SDS011;19795;53.160;6.612;2023-09-19T15:33:38;1999.90;;;999.90;;
33459;SDS011;19795;53.160;6.612;2023-09-19T15:36:08;1999.90;;;999.90;;
33459;SDS011;19795;53.160;6.612;2023-09-19T15:38:54;1999.90;;;999.90;;
33459;SDS011;19795;53.160;6.612;2023-09-19T15:41:27;1999.90;;;999.90;;
33459;SDS011;19795;53.160;6.612;2023-09-19T15:43:57;1999.90;;;999.90;;
33459;SDS011;19795;53.160;6.612;2023-09-19T15:46:26;1999.90;;;999.90;;
33459;SDS011;19795;53.160;6.612;2023-09-19T15:48:56;1999.90;;;999.90;;
33459;SDS011;19795;53.160;6.612;2023-09-19T15:51:23;1999.90;;;999.90;;
33459;SDS011;19795;53.160;6.612;2023-09-19T15:53:50;1999.90;;;999.90;;
33459;SDS011;19795;53.160;6.612;2023-09-19T15:56:18;1999.90;;;999.90;;
33459;SDS011;19795;53.160;6.612;2023-09-19T15:58:51;1999.90;;;999.90;;
33459;SDS011;19795;53.160;6.612;2023-09-19T16:01:21;1999.90;;;999.90;;
33459;SDS011;19795;53.160;6.612;2023-09-19T16:03:48;1999.90;;;999.90;;
33459;SDS011;19795;53.160;6.612;2023-09-19T16:06:18;1999.90;;;999.90;;
33459;SDS011;19795;53.160;6.612;2023-09-19T16:08:49;1999.90;;;999.90;;
33459;SDS011;19795;53.160;6.612;2023-09-19T16:11:18;1999.90;;;999.90;;
33459;SDS011;19795;53.160;6.612;2023-09-19T16:13:50;1999.90;;;999.90;;
33459;SDS011;19795;53.160;6.612;2023-09-19T16:16:17;1999.90;;;999.90;;
33459;SDS011;19795;53.160;6.612;2023-09-19T16:21:23;1999.90;;;999.90;;
33459;SDS011;19795;53.160;6.612;2023-09-19T16:23:54;1999.90;;;999.90;;
33459;SDS011;19795;53.160;6.612;2023-09-19T16:26:21;1999.90;;;999.90;;
33459;SDS011;19795;53.160;6.612;2023-09-19T16:28:49;1999.90;;;999.90;;
33459;SDS011;19795;53.160;6.612;2023-09-19T16:31:16;1999.90;;;999.90;;
33459;SDS011;19795;53.160;6.612;2023-09-19T16:33:44;1999.90;;;999.90;;
33459;SDS011;19795;53.160;6.612;2023-09-19T16:36:12;1999.90;;;999.90;;
33459;SDS011;19795;53.160;6.612;2023-09-19T16:38:41;1999.90;;;999.90;;
33459;SDS011;19795;53.160;6.612;2023-09-19T16:41:09;1999.90;;;999.90;;
33459;SDS011;19795;53.160;6.612;2023-09-19T16:43:39;1999.90;;;999.90;;
33459;SDS011;19795;53.160;6.612;2023-09-19T16:46:07;1999.90;;;999.90;;
33459;SDS011;19795;53.160;6.612;2023-09-19T16:48:37;1999.90;;;999.90;;
33459;SDS011;19795;53.160;6.612;2023-09-19T16:51:05;1999.90;;;999.90;;
33459;SDS011;19795;53.160;6.612;2023-09-19T16:53:33;1999.90;;;999.90;;
33459;SDS011;19795;53.160;6.612;2023-09-19T16:56:10;1999.90;;;999.90;;
33459;SDS011;19795;53.160;6.612;2023-09-19T16:58:39;1999.90;;;999.90;;
33459;SDS011;19795;53.160;6.612;2023-09-19T17:01:07;1999.90;;;999.90;;
33459;SDS011;19795;53.160;6.612;2023-09-19T17:03:40;1999.90;;;999.90;;
33459;SDS011;19795;53.160;6.612;2023-09-19T17:06:09;1999.90;;;999.90;;
33459;SDS011;19795;53.160;6.612;2023-09-19T17:08:41;1999.90;;;999.90;;
33459;SDS011;19795;53.160;6.612;2023-09-19T17:11:10;1999.90;;;999.90;;
33459;SDS011;19795;53.160;6.612;2023-09-19T17:13:38;1999.90;;;999.90;;
33459;SDS011;19795;53.160;6.612;2023-09-19T17:16:11;1999.90;;;999.90;;
33459;SDS011;19795;53.160;6.612;2023-09-19T17:18:57;1999.90;;;999.90;;
33459;SDS011;19795;53.160;6.612;2023-09-19T17:21:23;1999.90;;;999.90;;
33459;SDS011;19795;53.160;6.612;2023-09-19T17:23:50;1999.90;;;999.90;;
33459;SDS011;19795;53.160;6.612;2023-09-19T17:26:17;1999.90;;;999.90;;
33459;SDS011;19795;53.160;6.612;2023-09-19T17:28:45;1999.90;;;999.90;;
33459;SDS011;19795;53.160;6.612;2023-09-19T17:31:12;1999.90;;;999.90;;
33459;SDS011;19795;53.160;6.612;2023-09-19T17:33:40;1999.90;;;999.90;;
33459;SDS011;19795;53.160;6.612;2023-09-19T17:36:07;1999.90;;;999.90;;
33459;SDS011;19795;53.160;6.612;2023-09-19T17:38:35;1999.90;;;999.90;;
33459;SDS011;19795;53.160;6.612;2023-09-19T17:41:03;1999.90;;;999.90;;
33459;SDS011;19795;53.160;6.612;2023-09-19T17:43:32;1999.90;;;999.90;;
33459;SDS011;19795;53.160;6.612;2023-09-19T17:48:37;1999.90;;;999.90;;
33459;SDS011;19795;53.160;6.612;2023-09-19T17:51:08;1999.90;;;999.90;;
33459;SDS011;19795;53.160;6.612;2023-09-19T17:53:35;1999.90;;;999.90;;